This is the latest recevied weather packets stored in our database for station/object W3JGB. If no packets are shown the sender has not sent any weather packets the latest 10 day(s).
| Time | Temp. | Humidity | Pressure | Rain* | Wind** | Luminosity | Snow |
|---|---|---|---|---|---|---|---|
| 1778215002 | 5.56° C | 99% | 1011.6 hPa | 0 mm | - | 0 W/m² | - |
| 1778214700 | 5.56° C | 99% | 1011.9 hPa | 0 mm | - | 0 W/m² | - |
| 1778214397 | 6.11° C | 99% | 1011.8 hPa | 0 mm | - | 0 W/m² | - |
| 1778214094 | 5.56° C | 98% | 1011.8 hPa | 0 mm | - | 0 W/m² | - |
| 1778213790 | 6.11° C | 98% | 1011.7 hPa | 0 mm | - | 0 W/m² | - |
| 1778213487 | 6.11° C | 98% | 1011.5 hPa | 0 mm | - | 0 W/m² | - |
| 1778213184 | 6.67° C | 98% | 1011.6 hPa | 0 mm | - | 0 W/m² | - |
| 1778212882 | 6.11° C | 97% | 1011.4 hPa | 0 mm | - | 0 W/m² | - |
| 1778212578 | 6.67° C | 97% | 1011.3 hPa | 0 mm | - | 0 W/m² | - |
| 1778212276 | 6.67° C | 97% | 1011.5 hPa | 0 mm | - | 0 W/m² | - |
| 1778211972 | 6.67° C | 96% | 1011.3 hPa | 0 mm | - | 0 W/m² | - |
| 1778211669 | 7.22° C | 95% | 1011.5 hPa | 0 mm | - | 0 W/m² | - |
| 1778211367 | 7.22° C | 93% | 1011.6 hPa | 0 mm | - | 0 W/m² | - |
| 1778211065 | 7.78° C | 92% | 1011.4 hPa | 0 mm | - | 0 W/m² | - |
| 1778210761 | 7.78° C | 89% | 1011.1 hPa | 1.27 mm | - | 0 W/m² | - |
| 1778210459 | 7.78° C | 89% | 1011.5 hPa | 4.32 mm | - | 0 W/m² | - |
| 1778210156 | 8.33° C | 88% | 1012.1 hPa | 3.05 mm | - | 0 W/m² | - |
| 1778209852 | 8.89° C | 84% | 1012.1 hPa | 0 mm | - | 0 W/m² | - |
| 1778209548 | 10° C | 76% | 1011.9 hPa | 0 mm | - | 0 W/m² | - |
| 1778209247 | 10.56° C | 69% | 1011.5 hPa | 0 mm | - | 0 W/m² | - |
| 1778208942 | 11.11° C | 65% | 1011.1 hPa | 0 mm | - | 0 W/m² | - |
| 1778208639 | 11.11° C | 65% | 1011.1 hPa | 0 mm | - | 0 W/m² | - |
| 1778208335 | 10.56° C | 63% | 1010.8 hPa | 0 mm | - | 0 W/m² | - |
| 1778208032 | 8.89° C | 75% | 1010.2 hPa | 0 mm | - | 0 W/m² | - |
| 1778207729 | 9.44° C | 69% | 1009.8 hPa | 0 mm | - | 0 W/m² | - |
* Rain latest hour (hover to see other rain measurements)
** Current wind speed in m/s (hover to see current wind gust speed)